createdAt,value
2018-10-11T05:21:01.298Z,1007.89
2018-10-11T05:22:10.728Z,1007.93
2018-10-11T05:23:20.238Z,1007.97
2018-10-11T05:24:29.919Z,1007.97
2018-10-11T05:25:38.842Z,1008.02
2018-10-11T05:26:48.298Z,1008.01
2018-10-11T05:27:57.724Z,1008.06
2018-10-11T05:29:06.896Z,1008.06
2018-10-11T05:30:16.582Z,1008.05
2018-10-11T05:31:26.343Z,1008.07
2018-10-11T05:32:36.037Z,1008.09
2018-10-11T05:33:45.492Z,1008.09
2018-10-11T05:34:54.954Z,1008.08
2018-10-11T05:36:04.654Z,1008.04
2018-10-11T05:37:14.351Z,1008.11
2018-10-11T05:38:23.787Z,1008.12
2018-10-11T05:39:33.455Z,1008.14
2018-10-11T05:40:42.657Z,1008.16
2018-10-11T05:41:52.611Z,1008.16
2018-10-11T05:43:02.360Z,1008.13
2018-10-11T05:44:11.552Z,1008.13
2018-10-11T05:45:22.149Z,1008.11
2018-10-11T05:46:31.588Z,1008.16
2018-10-11T05:47:41.308Z,1008.12
2018-10-11T05:48:50.491Z,1008.16
2018-10-11T05:49:59.979Z,1008.17
2018-10-11T05:51:09.951Z,1008.18
2018-10-11T05:52:19.643Z,1008.18
2018-10-11T05:53:29.339Z,1008.23
2018-10-11T05:54:38.786Z,1008.25
2018-10-11T05:55:48.537Z,1008.23
2018-10-11T05:56:58.514Z,1008.21
2018-10-11T05:58:07.990Z,1008.18
2018-10-11T05:59:17.167Z,1008.21
2018-10-11T06:00:26.352Z,1008.21
2018-10-11T06:01:35.541Z,1008.16
2018-10-11T06:02:44.733Z,1008.16
2018-10-11T06:03:54.164Z,1008.17
2018-10-11T06:05:04.261Z,1008.18
2018-10-11T06:06:13.448Z,1008.17
2018-10-11T06:07:23.387Z,1008.14
2018-10-11T06:08:32.807Z,1008.1
2018-10-11T06:09:42.239Z,1008.13
2018-10-11T06:10:51.992Z,1008.14
2018-10-11T06:12:01.257Z,1008.12
2018-10-11T06:13:11.400Z,1008.12
2018-10-11T06:14:20.895Z,1008.14
2018-10-11T06:15:30.595Z,1008.18
2018-10-11T06:16:40.073Z,1008.2
2018-10-11T06:17:48.759Z,1008.27
2018-10-11T06:18:58.769Z,1008.3
2018-10-11T06:20:08.497Z,1008.38
2018-10-11T06:21:17.927Z,1008.41
2018-10-11T06:22:27.608Z,1008.52
2018-10-11T06:23:36.849Z,1008.56
2018-10-11T06:24:46.381Z,1008.57
2018-10-11T06:25:56.294Z,1008.59
2018-10-11T06:27:06.000Z,1008.59
2018-10-11T06:28:15.682Z,1008.53
2018-10-11T06:29:25.128Z,1008.47
2018-10-11T06:30:34.394Z,1008.45
2018-10-11T06:31:44.078Z,1008.41
2018-10-11T06:32:53.515Z,1008.44
2018-10-11T06:34:02.684Z,1008.47
2018-10-11T06:35:12.397Z,1008.48
2018-10-11T06:36:21.857Z,1008.48
2018-10-11T06:37:32.335Z,1008.53
2018-10-11T06:38:42.278Z,1008.58
2018-10-11T06:39:51.969Z,1008.64
2018-10-11T06:41:01.654Z,1008.61
2018-10-11T06:42:11.144Z,1008.63
2018-10-11T06:43:20.550Z,1008.62
2018-10-11T06:44:30.288Z,1008.62
2018-10-11T06:45:39.713Z,1008.65
2018-10-11T06:46:49.167Z,1008.69
2018-10-11T06:47:58.616Z,1008.7
2018-10-11T06:49:08.559Z,1008.72
2018-10-11T06:50:17.728Z,1008.72
2018-10-11T06:51:27.971Z,1008.72
2018-10-11T06:52:37.397Z,1008.7
2018-10-11T06:53:47.074Z,1008.75
2018-10-11T06:54:56.499Z,1008.77
2018-10-11T06:56:06.034Z,1008.81
2018-10-11T06:57:15.866Z,1008.82
2018-10-11T06:58:25.367Z,1008.81
2018-10-11T06:59:34.539Z,1008.86
2018-10-11T07:00:43.203Z,1008.85
2018-10-11T07:01:52.968Z,1008.89
2018-10-11T07:03:02.658Z,1008.9
2018-10-11T07:04:12.097Z,1008.88
2018-10-11T07:05:21.819Z,1008.88
2018-10-11T07:06:31.510Z,1008.86
2018-10-11T07:07:41.455Z,1008.91
2018-10-11T07:08:50.899Z,1008.91
2018-10-11T07:10:00.339Z,1008.89
2018-10-11T07:11:09.860Z,1008.97
2018-10-11T07:12:19.555Z,1008.99
2018-10-11T07:13:29.548Z,1009.05
2018-10-11T07:14:38.574Z,1009.13
2018-10-11T07:15:48.299Z,1009.1
2018-10-11T07:16:57.462Z,1009.16
2018-10-11T07:18:06.646Z,1009.15
2018-10-11T07:19:15.861Z,1009.14
2018-10-11T07:20:25.219Z,1009.17
2018-10-11T07:21:34.911Z,1009.2
2018-10-11T07:22:44.356Z,1009.15
2018-10-11T07:23:54.314Z,1009.17
2018-10-11T07:25:03.472Z,1009.21
2018-10-11T07:26:13.426Z,1009.14
2018-10-11T07:27:22.593Z,1009.15
2018-10-11T07:28:32.054Z,1009.14
2018-10-11T07:29:41.507Z,1009.18
2018-10-11T07:30:50.945Z,1009.2
2018-10-11T07:32:00.671Z,1009.18
2018-10-11T07:33:09.986Z,1009.18
2018-10-11T07:34:19.728Z,1009.2
2018-10-11T07:35:29.700Z,1009.17
2018-10-11T07:36:39.868Z,1009.15
2018-10-11T07:37:49.289Z,1009.15
2018-10-11T07:38:58.487Z,1009.17
2018-10-11T07:40:08.279Z,1009.17
2018-10-11T07:41:18.580Z,1009.15
2018-10-11T07:42:28.290Z,1009.14
2018-10-11T07:43:38.485Z,1009.12
2018-10-11T07:44:47.914Z,1009.15
2018-10-11T07:45:57.612Z,1009.12
2018-10-11T07:47:07.877Z,1009.13
2018-10-11T07:48:18.611Z,1009.11
2018-10-11T07:49:27.788Z,1009.17
2018-10-11T07:50:37.467Z,1009.17
2018-10-11T07:51:46.917Z,1009.18
2018-10-11T07:52:56.434Z,1009.2
2018-10-11T07:54:05.630Z,1009.17
2018-10-11T07:55:15.321Z,1009.16
2018-10-11T07:56:25.008Z,1009.22
2018-10-11T07:57:34.179Z,1009.17
2018-10-11T07:58:44.122Z,1009.17
2018-10-11T07:59:53.811Z,1009.14
2018-10-11T08:01:03.049Z,1009.15
2018-10-11T08:02:12.783Z,1009.12
2018-10-11T08:03:22.813Z,1009.16
2018-10-11T08:04:32.463Z,1009.12
2018-10-11T08:05:41.889Z,1009.18
2018-10-11T08:06:51.595Z,1009.15
2018-10-11T08:08:01.101Z,1009.19
2018-10-11T08:09:10.657Z,1009.2
2018-10-11T08:10:20.209Z,1009.18
2018-10-11T08:11:29.923Z,1009.12
2018-10-11T08:12:40.672Z,1009.11
2018-10-11T08:13:49.614Z,1009.14
2018-10-11T08:14:59.050Z,1009.17
2018-10-11T08:16:08.844Z,1009.21
2018-10-11T08:17:19.577Z,1009.22
2018-10-11T08:18:32.296Z,1009.23
2018-10-11T08:19:42.433Z,1009.24
2018-10-11T08:20:52.530Z,1009.24
2018-10-11T08:22:02.218Z,1009.22
2018-10-11T08:23:11.674Z,1009.2
2018-10-11T08:24:20.628Z,1009.16
2018-10-11T08:25:31.619Z,1009.16
2018-10-11T08:26:44.217Z,1009.16
2018-10-11T08:27:54.980Z,1009.2
2018-10-11T08:29:03.897Z,1009.18
2018-10-11T08:30:13.592Z,1009.22
2018-10-11T08:31:23.274Z,1009.23
2018-10-11T08:32:33.659Z,1009.21
2018-10-11T08:33:44.448Z,1009.2
2018-10-11T08:34:53.892Z,1009.2
2018-10-11T08:36:03.066Z,1009.21
2018-10-11T08:37:12.560Z,1009.18
2018-10-11T08:38:21.731Z,1009.24
2018-10-11T08:39:31.890Z,1009.23
2018-10-11T08:40:40.811Z,1009.21
2018-10-11T08:41:49.991Z,1009.18
2018-10-11T08:42:59.419Z,1009.13
2018-10-11T08:44:09.183Z,1009.16
2018-10-11T08:45:19.121Z,1009.13
2018-10-11T08:46:28.541Z,1009.16
2018-10-11T08:47:38.512Z,1009.18
2018-10-11T08:48:48.000Z,1009.18
2018-10-11T08:49:57.488Z,1009.15
2018-10-11T08:51:07.641Z,1009.17
2018-10-11T08:52:16.545Z,1009.21
2018-10-11T08:53:26.028Z,1009.16
2018-10-11T08:54:35.787Z,1009.19
2018-10-11T08:55:45.348Z,1009.18
2018-10-11T08:56:54.896Z,1009.15
2018-10-11T08:58:04.591Z,1009.15
2018-10-11T08:59:14.366Z,1009.16
2018-10-11T09:00:24.176Z,1009.14
2018-10-11T09:01:33.874Z,1009.18
2018-10-11T09:02:43.597Z,1009.2
2018-10-11T09:03:53.213Z,1009.17
2018-10-11T09:05:04.787Z,1009.18
2018-10-11T09:06:15.614Z,1009.19
2018-10-11T09:07:25.058Z,1009.2
2018-10-11T09:08:34.229Z,1009.2
2018-10-11T09:09:43.956Z,1009.2
2018-10-11T09:11:01.055Z,1009.23
2018-10-11T09:12:11.191Z,1009.23
2018-10-11T09:13:20.363Z,1009.26
2018-10-11T09:14:30.071Z,1009.3
2018-10-11T09:15:39.755Z,1009.24
2018-10-11T09:16:49.183Z,1009.23
2018-10-11T09:17:58.612Z,1009.22
2018-10-11T09:19:07.777Z,1009.22
2018-10-11T09:20:16.950Z,1009.2
2018-10-11T09:21:26.499Z,1009.14
2018-10-11T09:22:35.938Z,1009.16
2018-10-11T09:23:45.647Z,1009.13
2018-10-11T09:24:55.072Z,1009.1
2018-10-11T09:26:04.499Z,1009.12
2018-10-11T09:27:13.686Z,1009.11
2018-10-11T09:28:23.152Z,1009.12
2018-10-11T09:29:32.910Z,1009.12
2018-10-11T09:30:42.091Z,1009.09
2018-10-11T09:31:51.515Z,1009.12
2018-10-11T09:33:01.192Z,1009.1
2018-10-11T09:34:10.634Z,1009.14
2018-10-11T09:35:19.904Z,1009.14
2018-10-11T09:36:29.384Z,1009.12
2018-10-11T09:37:39.993Z,1009.09
2018-10-11T09:38:48.931Z,1009.1
2018-10-11T09:39:58.369Z,1009.07
2018-10-11T09:41:07.836Z,1009.1
2018-10-11T09:42:17.513Z,1009.11
2018-10-11T09:43:26.953Z,1009.06
2018-10-11T09:44:36.658Z,1009.04
2018-10-11T09:45:46.096Z,1009.07
2018-10-11T09:46:56.074Z,1009.07
2018-10-11T09:48:05.519Z,1009.05
2018-10-11T09:49:15.233Z,1009.03
2018-10-11T09:50:24.911Z,1009.06
2018-10-11T09:51:34.081Z,1009.03
2018-10-11T09:52:43.753Z,1009.03
2018-10-11T09:53:52.961Z,1009.06
2018-10-11T09:55:02.495Z,1009.02
2018-10-11T09:56:11.932Z,1008.99
2018-10-11T09:57:21.415Z,1009.01
2018-10-11T09:58:31.117Z,1008.98
2018-10-11T09:59:40.276Z,1008.98
2018-10-11T10:00:49.746Z,1009.02
2018-10-11T10:01:59.210Z,1009.04
2018-10-11T10:03:09.594Z,1008.99
2018-10-11T10:04:19.028Z,1009.01
2018-10-11T10:05:27.947Z,1008.98
2018-10-11T10:06:37.442Z,1008.98
2018-10-11T10:07:47.129Z,1008.98
2018-10-11T10:08:56.571Z,1008.98
2018-10-11T10:10:06.366Z,1008.91
2018-10-11T10:11:15.794Z,1008.87
2018-10-11T10:12:25.762Z,1008.87
2018-10-11T10:13:35.183Z,1008.86
2018-10-11T10:14:44.867Z,1008.87
2018-10-11T10:15:54.868Z,1008.85
2018-10-11T10:17:04.288Z,1008.9
2018-10-11T10:18:13.750Z,1008.88
2018-10-11T10:19:23.188Z,1008.89
2018-10-11T10:20:32.624Z,1008.88
2018-10-11T10:21:42.180Z,1008.93
2018-10-11T10:22:51.826Z,1008.93
2018-10-11T10:24:01.042Z,1008.94
2018-10-11T10:25:10.726Z,1008.95
2018-10-11T10:26:20.167Z,1008.95
2018-10-11T10:27:29.911Z,1008.93
2018-10-11T10:28:39.716Z,1008.96
2018-10-11T10:29:49.664Z,1008.96
2018-10-11T10:30:58.571Z,1008.99
2018-10-11T10:32:08.304Z,1008.96
2018-10-11T10:33:17.216Z,1008.95
2018-10-11T10:34:26.920Z,1008.97
2018-10-11T10:35:35.824Z,1008.94
2018-10-11T10:36:45.245Z,1008.96
2018-10-11T10:37:54.406Z,1008.92
2018-10-11T10:39:03.871Z,1008.93
2018-10-11T10:40:13.068Z,1008.91
2018-10-11T10:41:22.494Z,1008.89
2018-10-11T10:42:31.916Z,1008.86
2018-10-11T10:43:41.339Z,1008.88
2018-10-11T10:44:50.922Z,1008.84
2018-10-11T10:46:00.098Z,1008.88
2018-10-11T10:47:10.033Z,1008.85
2018-10-11T10:48:19.743Z,1008.85
2018-10-11T10:49:29.439Z,1008.8
2018-10-11T10:50:39.403Z,1008.84
2018-10-11T10:51:48.832Z,1008.79
2018-10-11T10:52:58.274Z,1008.84
2018-10-11T10:54:08.010Z,1008.78
2018-10-11T10:55:17.974Z,1008.77
2018-10-11T10:56:26.882Z,1008.76
2018-10-11T10:57:36.561Z,1008.76
2018-10-11T10:58:46.027Z,1008.78
2018-10-11T10:59:55.475Z,1008.73
2018-10-11T11:01:04.905Z,1008.7
2018-10-11T11:02:14.330Z,1008.69
2018-10-11T11:03:23.584Z,1008.68
2018-10-11T11:04:33.562Z,1008.66
2018-10-11T11:05:42.990Z,1008.64
2018-10-11T11:06:51.905Z,1008.65
2018-10-11T11:08:01.630Z,1008.61
2018-10-11T11:09:10.813Z,1008.63
2018-10-11T11:10:20.526Z,1008.63
2018-10-11T11:11:29.979Z,1008.59
2018-10-11T11:12:39.682Z,1008.55
2018-10-11T11:13:48.586Z,1008.59
2018-10-11T11:14:58.027Z,1008.53
2018-10-11T11:16:06.942Z,1008.49
2018-10-11T11:17:16.114Z,1008.52
2018-10-11T11:18:25.543Z,1008.5
2018-10-11T11:19:35.224Z,1008.45
2018-10-11T11:20:44.149Z,1008.45
2018-10-11T11:21:53.066Z,1008.4
2018-10-11T11:23:02.244Z,1008.44
2018-10-11T11:24:11.183Z,1008.38
2018-10-11T11:25:20.416Z,1008.4
2018-10-11T11:26:29.816Z,1008.35
2018-10-11T11:27:39.245Z,1008.39
2018-10-11T11:28:48.926Z,1008.44
2018-10-11T11:29:58.350Z,1008.43
2018-10-11T11:31:07.399Z,1008.43
2018-10-11T11:32:17.323Z,1008.46
2018-10-11T11:33:26.505Z,1008.42
2018-10-11T11:34:35.921Z,1008.44
2018-10-11T11:35:45.110Z,1008.42
2018-10-11T11:36:54.010Z,1008.44
2018-10-11T11:38:02.700Z,1008.41
2018-10-11T11:39:12.135Z,1008.47
2018-10-11T11:40:21.811Z,1008.41
2018-10-11T11:41:31.498Z,1008.44
2018-10-11T11:42:40.930Z,1008.41
2018-10-11T11:43:50.129Z,1008.44
2018-10-11T11:44:59.556Z,1008.35
2018-10-11T11:46:09.005Z,1008.34
2018-10-11T11:47:18.185Z,1008.34
2018-10-11T11:48:28.013Z,1008.33
2018-10-11T11:49:37.183Z,1008.31
2018-10-11T11:50:46.866Z,1008.31
2018-10-11T11:51:56.334Z,1008.32
2018-10-11T11:53:05.901Z,1008.27
2018-10-11T11:54:16.016Z,1008.29
2018-10-11T11:55:25.794Z,1008.3
2018-10-11T11:56:35.746Z,1008.32
2018-10-11T11:57:44.919Z,1008.32
2018-10-11T11:58:54.868Z,1008.34
2018-10-11T12:00:04.553Z,1008.36
2018-10-11T12:01:14.236Z,1008.32
2018-10-11T12:02:23.278Z,1008.31
2018-10-11T12:03:33.130Z,1008.37
2018-10-11T12:04:42.570Z,1008.36
2018-10-11T12:05:52.027Z,1008.39
2018-10-11T12:07:01.506Z,1008.38
2018-10-11T12:08:11.202Z,1008.37
2018-10-11T12:09:20.617Z,1008.39
2018-10-11T12:10:29.865Z,1008.41
2018-10-11T12:11:39.943Z,1008.46
2018-10-11T12:12:49.878Z,1008.47
2018-10-11T12:13:59.309Z,1008.41
2018-10-11T12:15:09.244Z,1008.39
2018-10-11T12:16:18.411Z,1008.4
2018-10-11T12:17:28.408Z,1008.36
2018-10-11T12:18:37.867Z,1008.34
2018-10-11T12:19:47.576Z,1008.4
2018-10-11T12:20:57.270Z,1008.31
2018-10-11T12:22:07.004Z,1008.32
2018-10-11T12:23:16.431Z,1008.32
2018-10-11T12:24:25.607Z,1008.31
2018-10-11T12:25:35.072Z,1008.32
2018-10-11T12:26:44.507Z,1008.28
2018-10-11T12:27:54.001Z,1008.29
2018-10-11T12:29:03.503Z,1008.27
2018-10-11T12:30:13.266Z,1008.25
2018-10-11T12:31:22.182Z,1008.22
2018-10-11T12:32:31.610Z,1008.27
2018-10-11T12:33:41.288Z,1008.29
2018-10-11T12:34:50.961Z,1008.27
2018-10-11T12:36:00.640Z,1008.27
2018-10-11T12:37:09.816Z,1008.32
2018-10-11T12:38:19.501Z,1008.39
2018-10-11T12:39:29.486Z,1008.38
2018-10-11T12:40:38.671Z,1008.42
2018-10-11T12:41:48.355Z,1008.4
2018-10-11T12:42:57.268Z,1008.38
2018-10-11T12:44:06.979Z,1008.35
2018-10-11T12:45:16.484Z,1008.32
2018-10-11T12:46:27.074Z,1008.33
2018-10-11T12:47:44.182Z,1008.34
2018-10-11T12:48:53.621Z,1008.32
2018-10-11T12:50:03.415Z,1008.34
2018-10-11T12:51:13.178Z,1008.3
2018-10-11T12:52:23.132Z,1008.34
2018-10-11T12:53:32.837Z,1008.31
2018-10-11T12:54:51.503Z,1008.33
2018-10-11T12:56:01.266Z,1008.31
2018-10-11T12:57:15.075Z,1008.3
2018-10-11T12:58:25.471Z,1008.28
2018-10-11T12:59:34.913Z,1008.24
2018-10-11T13:00:44.140Z,1008.21
2018-10-11T13:01:53.454Z,1008.24
2018-10-11T13:03:03.006Z,1008.17
2018-10-11T13:04:12.632Z,1008.19
2018-10-11T13:05:22.071Z,1008.18
2018-10-11T13:06:31.559Z,1008.18
2018-10-11T13:07:41.533Z,1008.15
2018-10-11T13:08:50.974Z,1008.21
2018-10-11T13:10:00.669Z,1008.18
2018-10-11T13:11:10.391Z,1008.2
2018-10-11T13:12:19.819Z,1008.23
2018-10-11T13:13:29.269Z,1008.18
2018-10-11T13:14:39.012Z,1008.2
2018-10-11T13:15:48.801Z,1008.19
2018-10-11T13:17:01.450Z,1008.16
2018-10-11T13:18:11.124Z,1008.18
2018-10-11T13:19:20.818Z,1008.17
2018-10-11T13:20:30.529Z,1008.16
2018-10-11T13:21:39.970Z,1008.2
2018-10-11T13:22:50.056Z,1008.23
2018-10-11T13:24:00.641Z,1008.25
2018-10-11T13:25:10.346Z,1008.24
2018-10-11T13:26:20.058Z,1008.23
2018-10-11T13:27:29.881Z,1008.19
2018-10-11T13:28:39.083Z,1008.21
2018-10-11T13:29:49.364Z,1008.23
2018-10-11T13:30:58.807Z,1008.21
2018-10-11T13:32:07.983Z,1008.19
2018-10-11T13:33:17.669Z,1008.15
2018-10-11T13:34:26.852Z,1008.16
2018-10-11T13:35:36.429Z,1008.16
2018-10-11T13:36:45.591Z,1008.19
2018-10-11T13:37:54.756Z,1008.21
2018-10-11T13:39:04.190Z,1008.23
2018-10-11T13:40:14.143Z,1008.22
2018-10-11T13:41:22.911Z,1008.22
2018-10-11T13:42:32.062Z,1008.23
2018-10-11T13:43:41.259Z,1008.2
2018-10-11T13:44:50.942Z,1008.21
2018-10-11T13:46:02.540Z,1008.17
2018-10-11T13:47:12.660Z,1008.18
2018-10-11T13:48:23.058Z,1008.12
2018-10-11T13:49:32.493Z,1008.18
2018-10-11T13:50:42.166Z,1008.17
2018-10-11T13:51:51.929Z,1008.21
2018-10-11T13:53:01.436Z,1008.21
2018-10-11T13:54:14.304Z,1008.28
2018-10-11T13:55:23.735Z,1008.28
2018-10-11T13:56:33.152Z,1008.25
2018-10-11T13:57:43.101Z,1008.23
2018-10-11T13:58:52.977Z,1008.24
2018-10-11T14:00:07.890Z,1008.2
2018-10-11T14:01:17.606Z,1008.2
2018-10-11T14:02:27.030Z,1008.2
2018-10-11T14:03:36.459Z,1008.13
2018-10-11T14:04:45.674Z,1008.16
2018-10-11T14:05:55.384Z,1008.17
2018-10-11T14:07:04.584Z,1008.12
2018-10-11T14:08:14.330Z,1008.11
2018-10-11T14:09:24.014Z,1008.1
2018-10-11T14:10:33.260Z,1008.12
2018-10-11T14:11:43.832Z,1008.09
2018-10-11T14:12:53.523Z,1008.12
2018-10-11T14:14:02.690Z,1008.07
2018-10-11T14:15:12.128Z,1008.09
2018-10-11T14:16:21.559Z,1008.08
2018-10-11T14:17:30.495Z,1008.08
2018-10-11T14:18:40.710Z,1008.08
2018-10-11T14:19:50.648Z,1008.1
2018-10-11T14:21:00.076Z,1008.11
2018-10-11T14:22:09.254Z,1008.06
2018-10-11T14:23:18.441Z,1008.09
2018-10-11T14:24:27.891Z,1008.07
2018-10-11T14:25:37.844Z,1008.07
2018-10-11T14:26:47.538Z,1008.08
2018-10-11T14:27:56.974Z,1008.05
2018-10-11T14:29:06.201Z,1008.05
2018-10-11T14:30:15.886Z,1008.07
2018-10-11T14:31:25.574Z,1008.08
2018-10-11T14:32:35.270Z,1008.06
2018-10-11T14:33:44.707Z,1008.09
2018-10-11T14:34:54.416Z,1008.06
2018-10-11T14:36:04.182Z,1008.05
2018-10-11T14:37:14.261Z,1008.03
2018-10-11T14:38:24.822Z,1008.04
2018-10-11T14:39:33.990Z,1008.04
2018-10-11T14:40:43.728Z,1008.04
2018-10-11T14:41:52.940Z,1008.05
2018-10-11T14:43:02.997Z,1008.03
2018-10-11T14:44:13.011Z,1008.05
2018-10-11T14:45:22.984Z,1007.97
2018-10-11T14:46:32.607Z,1007.98
2018-10-11T14:47:42.631Z,1007.94
2018-10-11T14:48:51.907Z,1007.99
2018-10-11T14:50:02.078Z,1007.97
2018-10-11T14:51:12.225Z,1007.94
2018-10-11T14:52:22.534Z,1007.98
2018-10-11T14:53:31.965Z,1007.91
2018-10-11T14:54:40.887Z,1007.9
2018-10-11T14:55:50.861Z,1007.96
2018-10-11T14:57:00.298Z,1007.9
2018-10-11T14:58:09.805Z,1007.92
2018-10-11T14:59:19.597Z,1007.95
2018-10-11T15:00:29.832Z,1007.97
2018-10-11T15:01:39.542Z,1007.98
2018-10-11T15:02:49.191Z,1007.95
2018-10-11T15:03:59.468Z,1007.95
2018-10-11T15:05:08.651Z,1007.91
2018-10-11T15:06:18.475Z,1007.95
2018-10-11T15:07:28.377Z,1007.96
2018-10-11T15:08:37.818Z,1007.92
2018-10-11T15:09:47.248Z,1007.96
2018-10-11T15:10:57.000Z,1007.96
2018-10-11T15:12:07.260Z,1007.95
2018-10-11T15:13:16.712Z,1007.93
2018-10-11T15:14:25.638Z,1007.93
2018-10-11T15:15:34.611Z,1007.92
2018-10-11T15:16:44.330Z,1007.91
2018-10-11T15:17:53.809Z,1007.9
2018-10-11T15:19:03.863Z,1007.89
2018-10-11T15:20:13.293Z,1007.87
2018-10-11T15:21:22.489Z,1007.9
2018-10-11T15:22:31.145Z,1007.89
2018-10-11T15:23:40.586Z,1007.89
2018-10-11T15:24:50.541Z,1007.91
2018-10-11T15:25:59.985Z,1007.9
2018-10-11T15:27:09.933Z,1007.91
2018-10-11T15:28:19.108Z,1007.9
2018-10-11T15:29:28.397Z,1007.87
2018-10-11T15:30:38.537Z,1007.92
2018-10-11T15:31:48.028Z,1007.87
2018-10-11T15:32:57.999Z,1007.92
2018-10-11T15:34:07.167Z,1007.91
2018-10-11T15:35:16.861Z,1007.9
2018-10-11T15:36:25.982Z,1007.87
2018-10-11T15:37:35.683Z,1007.85
2018-10-11T15:38:45.125Z,1007.83
2018-10-11T15:39:54.817Z,1007.88
2018-10-11T15:41:04.243Z,1007.81
2018-10-11T15:42:13.927Z,1007.85
2018-10-11T15:43:23.594Z,1007.81
2018-10-11T15:44:32.511Z,1007.78
2018-10-11T15:45:42.264Z,1007.83
2018-10-11T15:46:51.739Z,1007.82
2018-10-11T15:48:01.705Z,1007.87
2018-10-11T15:49:10.886Z,1007.89
2018-10-11T15:50:20.331Z,1007.86
2018-10-11T15:51:29.953Z,1007.86
2018-10-11T15:52:40.085Z,1007.89
2018-10-11T15:53:49.792Z,1007.82
2018-10-11T15:54:59.750Z,1007.76
2018-10-11T15:56:08.909Z,1007.81
2018-10-11T15:57:18.325Z,1007.84
2018-10-11T15:58:27.838Z,1007.86
2018-10-11T15:59:37.573Z,1007.87
2018-10-11T16:00:46.734Z,1007.89
2018-10-11T16:01:56.171Z,1007.91
2018-10-11T16:03:06.122Z,1007.89
2018-10-11T16:04:15.801Z,1007.9
2018-10-11T16:05:24.779Z,1007.91
2018-10-11T16:06:34.835Z,1007.91
2018-10-11T16:07:44.287Z,1007.93
2018-10-11T16:08:54.024Z,1007.96
2018-10-11T16:10:04.518Z,1007.95
2018-10-11T16:11:14.187Z,1007.97
2018-10-11T16:12:23.866Z,1007.93
2018-10-11T16:13:33.036Z,1007.98
2018-10-11T16:14:42.200Z,1008
2018-10-11T16:15:51.878Z,1008.02
2018-10-11T16:17:01.307Z,1008
2018-10-11T16:18:10.986Z,1008.02
2018-10-11T16:19:20.429Z,1008.04
2018-10-11T16:20:29.608Z,1008.07
2018-10-11T16:21:39.033Z,1008.07
2018-10-11T16:22:48.716Z,1008.06
2018-10-11T16:23:57.895Z,1008.05
2018-10-11T16:25:07.330Z,1008.1
2018-10-11T16:26:17.019Z,1008.07
2018-10-11T16:27:26.715Z,1008.09
2018-10-11T16:28:36.142Z,1008.05
2018-10-11T16:29:45.433Z,1008.04
2018-10-11T16:30:54.858Z,1008.08
2018-10-11T16:32:03.783Z,1008.06
2018-10-11T16:33:13.448Z,1008.07
2018-10-11T16:34:22.619Z,1008.09
2018-10-11T16:35:32.315Z,1008.08
2018-10-11T16:36:42.051Z,1008.11
2018-10-11T16:37:51.205Z,1008.14
2018-10-11T16:39:01.166Z,1008.17
2018-10-11T16:40:11.438Z,1008.19
2018-10-11T16:41:20.872Z,1008.25
2018-10-11T16:42:30.039Z,1008.27
2018-10-11T16:43:39.464Z,1008.23
2018-10-11T16:44:48.645Z,1008.28
2018-10-11T16:45:58.616Z,1008.32
2018-10-11T16:47:08.033Z,1008.34
2018-10-11T16:48:17.203Z,1008.34
2018-10-11T16:49:26.924Z,1008.3
2018-10-11T16:50:37.116Z,1008.31
2018-10-11T16:51:46.551Z,1008.31
2018-10-11T16:52:55.702Z,1008.31
2018-10-11T16:54:05.396Z,1008.27
2018-10-11T16:55:14.845Z,1008.27
2018-10-11T16:56:24.271Z,1008.27
2018-10-11T16:57:33.426Z,1008.26
2018-10-11T16:58:43.128Z,1008.22
2018-10-11T16:59:52.799Z,1008.27
2018-10-11T17:01:02.224Z,1008.24
2018-10-11T17:02:11.410Z,1008.31
2018-10-11T17:03:20.829Z,1008.28
2018-10-11T17:04:30.383Z,1008.3
2018-10-11T17:05:39.676Z,1008.37
2018-10-11T17:06:49.345Z,1008.36
2018-10-11T17:07:59.148Z,1008.39
2018-10-11T17:09:08.479Z,1008.42
2018-10-11T17:10:17.656Z,1008.44
2018-10-11T17:11:27.106Z,1008.45
2018-10-11T17:12:36.838Z,1008.45
2018-10-11T17:13:46.248Z,1008.44
2018-10-11T17:14:56.086Z,1008.48
2018-10-11T17:16:05.795Z,1008.51
2018-10-11T17:17:14.947Z,1008.49
2018-10-11T17:18:24.633Z,1008.53
2018-10-11T17:19:34.584Z,1008.56
2018-10-11T17:20:43.767Z,1008.58
2018-10-11T17:21:52.946Z,1008.58
2018-10-11T17:23:02.899Z,1008.63
2018-10-11T17:24:12.321Z,1008.68
2018-10-11T17:25:21.778Z,1008.65
2018-10-11T17:26:31.715Z,1008.66
2018-10-11T17:27:40.684Z,1008.68
2018-10-11T17:28:50.108Z,1008.64
2018-10-11T17:29:59.830Z,1008.68
2018-10-11T17:31:08.775Z,1008.68
2018-10-11T17:32:17.688Z,1008.7
2018-10-11T17:33:27.375Z,1008.7
2018-10-11T17:34:36.805Z,1008.73
2018-10-11T17:36:21.046Z,1008.68
2018-10-11T17:37:30.740Z,1008.76
2018-10-11T17:38:39.699Z,1008.74
2018-10-11T17:39:48.981Z,1008.73
2018-10-11T17:40:58.296Z,1008.76
2018-10-11T17:42:07.760Z,1008.71
2018-10-11T17:43:18.278Z,1008.74
2018-10-11T17:44:27.185Z,1008.74
2018-10-11T17:45:37.563Z,1008.74
2018-10-11T17:46:47.499Z,1008.78
2018-10-11T17:47:56.687Z,1008.8
2018-10-11T17:49:06.454Z,1008.79
2018-10-11T17:50:15.751Z,1008.76
2018-10-11T17:51:25.964Z,1008.82
2018-10-11T17:52:35.674Z,1008.82
2018-10-11T17:53:45.059Z,1008.83
2018-10-11T17:54:55.006Z,1008.89
2018-10-11T17:56:04.454Z,1008.88
2018-10-11T17:57:14.090Z,1008.88
2018-10-11T17:58:23.806Z,1008.92
2018-10-11T17:59:33.239Z,1008.91
2018-10-11T18:00:42.665Z,1008.94
2018-10-11T18:01:52.092Z,1008.93
2018-10-11T18:03:01.023Z,1008.94
2018-10-11T18:04:10.945Z,1008.94
2018-10-11T18:05:20.378Z,1008.93
2018-10-11T18:06:30.335Z,1008.94
2018-10-11T18:07:39.545Z,1008.93
2018-10-11T18:08:49.265Z,1008.95
2018-10-11T18:09:58.710Z,1009
2018-10-11T18:11:09.334Z,1009.03
2018-10-11T18:12:18.787Z,1009.04
2018-10-11T18:13:27.748Z,1009.05
2018-10-11T18:14:36.733Z,1009.07
2018-10-11T18:15:46.279Z,1009.05
2018-10-11T18:16:55.816Z,1009.03
2018-10-11T18:18:05.565Z,1009.06
2018-10-11T18:19:15.252Z,1009.04
2018-10-11T18:20:24.961Z,1009.09
2018-10-11T18:21:34.193Z,1009.07
2018-10-11T18:22:44.681Z,1009.08
2018-10-11T18:23:54.394Z,1009.07
2018-10-11T18:25:03.577Z,1009.09
2018-10-11T18:26:12.804Z,1009.05
2018-10-11T18:27:22.510Z,1009.06
2018-10-11T18:28:32.449Z,1009.05
2018-10-11T18:29:41.875Z,1009.1
2018-10-11T18:30:51.587Z,1009.08
2018-10-11T18:32:00.800Z,1009.1
2018-10-11T18:33:10.252Z,1009.13
2018-10-11T18:34:20.225Z,1009.14
2018-10-11T18:35:29.431Z,1009.1
2018-10-11T18:36:39.691Z,1009.14
2018-10-11T18:37:48.982Z,1009.1
2018-10-11T18:38:58.455Z,1009.21
2018-10-11T18:40:07.892Z,1009.21
2018-10-11T18:41:17.618Z,1009.23
2018-10-11T18:42:27.476Z,1009.26
2018-10-11T18:43:36.922Z,1009.27
2018-10-11T18:44:47.052Z,1009.27
2018-10-11T18:45:56.825Z,1009.28
2018-10-11T18:47:06.282Z,1009.3
2018-10-11T18:48:15.713Z,1009.32
2018-10-11T18:49:25.408Z,1009.3
2018-10-11T18:50:34.873Z,1009.29
2018-10-11T18:51:44.358Z,1009.34
2018-10-11T18:52:53.813Z,1009.33
2018-10-11T18:54:03.000Z,1009.39
2018-10-11T18:55:12.710Z,1009.36
2018-10-11T18:56:22.323Z,1009.36
2018-10-11T18:57:31.764Z,1009.37
2018-10-11T18:58:41.280Z,1009.37
2018-10-11T18:59:51.268Z,1009.36
2018-10-11T19:01:00.724Z,1009.35
2018-10-11T19:02:10.421Z,1009.37
2018-10-11T19:03:19.873Z,1009.37
2018-10-11T19:04:29.830Z,1009.36
2018-10-11T19:05:39.387Z,1009.32
2018-10-11T19:06:49.154Z,1009.31
2018-10-11T19:07:58.598Z,1009.31
2018-10-11T19:09:08.292Z,1009.27
2018-10-11T19:10:17.468Z,1009.31
2018-10-11T19:11:27.151Z,1009.3
2018-10-11T19:12:36.344Z,1009.25
2018-10-11T19:13:46.033Z,1009.3
2018-10-11T19:14:55.027Z,1009.29
2018-10-11T19:16:04.703Z,1009.32
2018-10-11T19:17:14.674Z,1009.32
2018-10-11T19:18:24.096Z,1009.33
2018-10-11T19:19:33.021Z,1009.33
2018-10-11T19:20:42.220Z,1009.36
2018-10-11T19:21:52.337Z,1009.34
2018-10-11T19:23:01.501Z,1009.38
2018-10-11T19:24:10.962Z,1009.41
2018-10-11T19:25:20.387Z,1009.41
2018-10-11T19:26:30.364Z,1009.41